Time;durP1;ratioP1;P1;durP2;ratioP2;P2;SDS_P1;SDS_P2;PMS_P1;PMS_P2;Temp;Humidity;BMP_temperature;BMP_pressure;BME280_temperature;BME280_humidity;BME280_pressure;Samples;Min_cycle;Max_cycle;Signal;HPM_P1;HPM_P2
2022/02/02 00:00:30;;;;;;;14.27;3.35;;;;;;;;;;5097131;28;20203;-85
2022/02/02 00:03:05;;;;;;;9.32;3.38;;;;;;;;;;5095405;28;20692;-85
2022/02/02 00:05:38;;;;;;;10.60;4.22;;;;;;;;;;5097048;28;20691;-84
2022/02/02 00:08:11;;;;;;;8.13;3.28;;;;;;;;;;5096492;28;20676;-85
2022/02/02 00:11:08;;;;;;;8.15;3.58;;;;;;;;;;5096669;28;20196;-85
2022/02/02 00:13:42;;;;;;;15.07;5.13;;;;;;;;;;5096755;28;20287;-85
2022/02/02 00:16:17;;;;;;;10.77;3.42;;;;;;;;;;5097056;28;20196;-85
2022/02/02 00:18:52;;;;;;;21.92;4.30;;;;;;;;;;5096915;28;20683;-86
2022/02/02 00:21:24;;;;;;;11.02;2.90;;;;;;;;;;5097098;28;20224;-85
2022/02/02 00:23:58;;;;;;;11.80;4.22;;;;;;;;;;5096895;28;20211;-85
2022/02/02 00:26:29;;;;;;;9.02;3.30;;;;;;;;;;5100244;28;20201;-86
2022/02/02 00:29:03;;;;;;;16.15;4.63;;;;;;;;;;5100167;28;20224;-84
2022/02/02 00:31:36;;;;;;;13.48;4.85;;;;;;;;;;5100037;28;20207;-85
2022/02/02 00:34:07;;;;;;;13.68;5.15;;;;;;;;;;5099579;28;20209;-85
2022/02/02 00:36:43;;;;;;;14.65;4.60;;;;;;;;;;5100213;28;20204;-85
2022/02/02 00:39:12;;;;;;;8.25;3.15;;;;;;;;;;5099410;28;20711;-85
2022/02/02 00:41:39;;;;;;;9.30;4.22;;;;;;;;;;5098603;28;20223;-84
2022/02/02 00:44:07;;;;;;;16.35;4.28;;;;;;;;;;5099066;28;20204;-85
2022/02/02 00:46:35;;;;;;;14.40;4.57;;;;;;;;;;5099065;28;20208;-84
2022/02/02 00:49:05;;;;;;;7.55;3.60;;;;;;;;;;5098444;28;20224;-85
2022/02/02 00:51:40;;;;;;;13.40;3.67;;;;;;;;;;5099724;28;20234;-85
2022/02/02 00:54:08;;;;;;;12.30;4.75;;;;;;;;;;5099964;28;20208;-85
2022/02/02 00:56:37;;;;;;;17.92;3.95;;;;;;;;;;5098597;28;20205;-84
2022/02/02 00:59:04;;;;;;;17.00;4.70;;;;;;;;;;5099403;28;20228;-85
2022/02/02 01:01:31;;;;;;;17.25;3.58;;;;;;;;;;5098804;28;20604;-85
2022/02/02 01:03:59;;;;;;;10.52;3.47;;;;;;;;;;5098533;28;20204;-85
2022/02/02 01:06:29;;;;;;;13.15;5.22;;;;;;;;;;5098172;28;20200;-84
2022/02/02 01:12:08;;;;;;;15.23;3.88;;;;;;;;;;5092925;28;20277;-84
2022/02/02 01:17:59;;;;;;;12.60;5.07;;;;;;;;;;5055671;28;20324;-86
2022/02/02 01:20:35;;;;;;;13.60;3.78;;;;;;;;;;5056365;28;20640;-88
2022/02/02 01:28:37;;;;;;;9.50;4.38;;;;;;;;;;5099583;28;20606;-86
2022/02/02 01:31:05;;;;;;;16.42;5.00;;;;;;;;;;5102054;28;20267;-87
2022/02/02 01:33:33;;;;;;;12.32;3.92;;;;;;;;;;5103166;28;20789;-85
2022/02/02 01:36:02;;;;;;;11.95;5.70;;;;;;;;;;5074833;22;20228;-88
2022/02/02 01:38:33;;;;;;;15.05;4.18;;;;;;;;;;5058246;28;20224;-88
2022/02/02 01:41:04;;;;;;;18.33;4.75;;;;;;;;;;5057439;28;20217;-87
2022/02/02 01:43:36;;;;;;;14.18;4.40;;;;;;;;;;5057472;28;20267;-87
2022/02/02 01:46:08;;;;;;;14.73;5.07;;;;;;;;;;5058287;28;20229;-87
2022/02/02 01:48:41;;;;;;;14.80;4.05;;;;;;;;;;5058187;28;20224;-86
2022/02/02 01:51:29;;;;;;;17.20;6.63;;;;;;;;;;5057690;28;20225;-87
2022/02/02 01:54:02;;;;;;;7.35;3.83;;;;;;;;;;5057033;28;20198;-87
2022/02/02 01:56:30;;;;;;;7.63;2.92;;;;;;;;;;5056777;28;20202;-87
2022/02/02 01:59:11;;;;;;;15.20;4.63;;;;;;;;;;5057472;28;20202;-88
2022/02/02 02:01:40;;;;;;;8.88;4.70;;;;;;;;;;5056649;28;20190;-86
2022/02/02 02:04:07;;;;;;;11.80;4.82;;;;;;;;;;5056762;28;20633;-86
2022/02/02 02:06:35;;;;;;;18.15;3.78;;;;;;;;;;5056397;28;20198;-86
2022/02/02 02:09:02;;;;;;;16.60;4.20;;;;;;;;;;5056873;28;20273;-87
2022/02/02 02:11:30;;;;;;;7.72;3.85;;;;;;;;;;5056546;28;20196;-87
2022/02/02 02:14:36;;;;;;;11.93;3.97;;;;;;;;;;5056543;28;20201;-87
2022/02/02 02:16:58;;;;;;;7.78;3.08;;;;;;;;;;5055972;28;20193;-87
2022/02/02 02:19:26;;;;;;;13.95;3.58;;;;;;;;;;5056333;28;20225;-85
2022/02/02 02:21:54;;;;;;;8.38;2.38;;;;;;;;;;5056059;28;20208;-86
2022/02/02 02:24:23;;;;;;;16.58;4.90;;;;;;;;;;5057216;28;20228;-86
2022/02/02 02:26:50;;;;;;;9.35;2.78;;;;;;;;;;5056426;28;20276;-86
2022/02/02 02:29:34;;;;;;;9.48;3.92;;;;;;;;;;5056629;28;20198;-86
2022/02/02 02:32:15;;;;;;;11.18;3.45;;;;;;;;;;5055870;28;20189;-87
2022/02/02 02:35:09;;;;;;;11.52;3.65;;;;;;;;;;5055394;28;20205;-86
2022/02/02 02:37:47;;;;;;;8.68;3.38;;;;;;;;;;5055809;28;20614;-86
2022/02/02 02:40:26;;;;;;;11.05;3.90;;;;;;;;;;5055961;28;20657;-89
2022/02/02 02:56:44;;;;;;;3.95;1.92;;;;;;;;;;5057060;28;20641;-89
2022/02/02 02:59:15;;;;;;;6.32;2.72;;;;;;;;;;5057489;28;20269;-91
2022/02/02 03:02:15;;;;;;;4.00;1.90;;;;;;;;;;5057869;28;20244;-91
2022/02/02 03:30:03;;;;;;;4.10;1.35;;;;;;;;;;5056620;28;20267;-91
2022/02/02 03:32:57;;;;;;;3.25;1.65;;;;;;;;;;5056392;28;20236;-91
2022/02/02 03:49:19;;;;;;;2.33;1.17;;;;;;;;;;5056517;28;20209;-91
2022/02/02 03:49:38;;;;;;;7.10;2.05;;;;;;;;;;5055539;28;20244;-91
2022/02/02 03:52:51;;;;;;;6.15;2.45;;;;;;;;;;5055686;28;20201;-91
2022/02/02 03:55:23;;;;;;;10.35;2.30;;;;;;;;;;5054822;28;20293;-91
2022/02/02 03:58:10;;;;;;;11.73;2.60;;;;;;;;;;5055126;28;20287;-90
2022/02/02 04:00:43;;;;;;;9.85;3.58;;;;;;;;;;5059024;28;20636;-91
2022/02/02 04:03:41;;;;;;;6.18;2.38;;;;;;;;;;5059914;28;20224;-91
2022/02/02 04:06:11;;;;;;;8.70;3.47;;;;;;;;;;5059657;28;20600;-92
2022/02/02 04:08:39;;;;;;;7.78;2.40;;;;;;;;;;5059772;28;20219;-91
2022/02/02 04:11:14;;;;;;;8.90;2.58;;;;;;;;;;5059547;28;20224;-91
2022/02/02 04:39:01;;;;;;;8.10;2.92;;;;;;;;;;5057935;28;20185;-90
2022/02/02 04:53:07;;;;;;;7.53;3.70;;;;;;;;;;5057400;28;20204;-91
2022/02/02 04:55:35;;;;;;;9.25;3.10;;;;;;;;;;5058951;28;20193;-90
2022/02/02 04:58:23;;;;;;;8.32;4.25;;;;;;;;;;5057453;28;20293;-90
2022/02/02 05:06:38;;;;;;;8.48;2.97;;;;;;;;;;5056485;28;20267;-90
2022/02/02 05:09:19;;;;;;;8.10;2.80;;;;;;;;;;5056908;28;20205;-90
2022/02/02 05:12:24;;;;;;;10.30;2.83;;;;;;;;;;5055266;28;20251;-90
2022/02/02 05:17:41;;;;;;;7.32;2.30;;;;;;;;;;5033589;28;20197;-91
2022/02/02 05:20:36;;;;;;;7.03;2.65;;;;;;;;;;5055887;28;20584;-90
2022/02/02 05:43:08;;;;;;;9.60;2.92;;;;;;;;;;5056481;28;20184;-90
2022/02/02 05:51:10;;;;;;;10.15;3.28;;;;;;;;;;5058603;28;20210;-92
2022/02/02 05:53:38;;;;;;;7.05;3.00;;;;;;;;;;5058405;28;20233;-92
2022/02/02 05:56:07;;;;;;;12.35;3.55;;;;;;;;;;5058361;28;20194;-91
2022/02/02 05:58:38;;;;;;;7.47;2.90;;;;;;;;;;5057835;28;20194;-90
2022/02/02 06:01:07;;;;;;;8.25;2.67;;;;;;;;;;5057670;28;20225;-91
2022/02/02 06:03:51;;;;;;;7.07;2.80;;;;;;;;;;5057727;28;20197;-91
2022/02/02 06:06:19;;;;;;;11.38;2.90;;;;;;;;;;5058089;28;20190;-93
2022/02/02 06:08:48;;;;;;;9.30;2.45;;;;;;;;;;5058171;28;20215;-91
2022/02/02 06:11:17;;;;;;;7.70;2.67;;;;;;;;;;5057682;28;20227;-93
2022/02/02 06:13:52;;;;;;;8.35;3.40;;;;;;;;;;5057828;28;20251;-90
2022/02/02 06:16:21;;;;;;;7.43;2.80;;;;;;;;;;5057686;28;20227;-93
2022/02/02 06:18:54;;;;;;;10.43;4.05;;;;;;;;;;5055142;28;20717;-92
2022/02/02 06:21:29;;;;;;;11.70;3.03;;;;;;;;;;5055545;28;20284;-92
2022/02/02 06:24:07;;;;;;;11.93;3.55;;;;;;;;;;5055252;28;20255;-92
2022/02/02 06:26:36;;;;;;;11.32;3.65;;;;;;;;;;5055862;28;20185;-91
2022/02/02 06:29:08;;;;;;;7.90;2.50;;;;;;;;;;5055066;28;20650;-91
2022/02/02 06:31:38;;;;;;;8.05;3.67;;;;;;;;;;5054652;28;20658;-91
2022/02/02 06:34:09;;;;;;;9.65;2.95;;;;;;;;;;5055851;28;20629;-92
2022/02/02 06:36:39;;;;;;;6.05;2.95;;;;;;;;;;5055737;28;20209;-92
2022/02/02 06:39:08;;;;;;;6.65;3.55;;;;;;;;;;5056501;28;20194;-91
2022/02/02 06:41:36;;;;;;;15.90;4.03;;;;;;;;;;5057126;28;20205;-94
2022/02/02 06:44:06;;;;;;;4.57;2.92;;;;;;;;;;5056214;28;20186;-93
2022/02/02 06:46:38;;;;;;;7.63;2.65;;;;;;;;;;5056204;28;20202;-92
2022/02/02 06:49:05;;;;;;;8.45;3.17;;;;;;;;;;5055753;28;20232;-92
2022/02/02 06:51:37;;;;;;;8.68;3.03;;;;;;;;;;5056160;28;20209;-93
2022/02/02 06:54:10;;;;;;;11.48;3.58;;;;;;;;;;5056795;28;20205;-93
2022/02/02 06:56:46;;;;;;;11.63;2.97;;;;;;;;;;5056212;28;20194;-91
2022/02/02 06:59:29;;;;;;;7.60;3.00;;;;;;;;;;5057619;28;20217;-92
2022/02/02 07:02:12;;;;;;;7.40;3.13;;;;;;;;;;5058363;28;20252;-91
2022/02/02 07:05:08;;;;;;;6.32;2.90;;;;;;;;;;5057390;28;20217;-93
2022/02/02 07:07:55;;;;;;;11.93;4.30;;;;;;;;;;5058771;28;20225;-93
2022/02/02 07:10:30;;;;;;;8.57;2.63;;;;;;;;;;5058564;28;20249;-93
2022/02/02 07:13:13;;;;;;;7.65;2.67;;;;;;;;;;5058907;28;20647;-93
2022/02/02 07:15:52;;;;;;;6.53;3.55;;;;;;;;;;5058720;28;20193;-93
2022/02/02 07:18:29;;;;;;;10.15;3.30;;;;;;;;;;5058723;28;20708;-93
2022/02/02 07:21:05;;;;;;;8.25;3.47;;;;;;;;;;5058292;28;20225;-93
2022/02/02 07:29:38;;;;;;;10.40;4.13;;;;;;;;;;5115585;28;20202;-84
2022/02/02 07:32:11;;;;;;;6.10;3.00;;;;;;;;;;5113844;28;20720;-85
2022/02/02 07:34:54;;;;;;;8.88;3.72;;;;;;;;;;5112804;28;20223;-85
2022/02/02 07:37:30;;;;;;;7.53;2.58;;;;;;;;;;5114315;28;20199;-85
2022/02/02 07:40:01;;;;;;;8.77;2.65;;;;;;;;;;5112329;28;20200;-85
2022/02/02 07:42:31;;;;;;;9.60;3.22;;;;;;;;;;5112780;28;20219;-85
2022/02/02 07:45:05;;;;;;;11.10;3.30;;;;;;;;;;5114338;28;20228;-85
2022/02/02 07:47:34;;;;;;;7.35;3.97;;;;;;;;;;5112884;28;20574;-83
2022/02/02 07:50:06;;;;;;;11.52;3.78;;;;;;;;;;5112288;28;20207;-85
2022/02/02 07:52:33;;;;;;;10.52;3.58;;;;;;;;;;5115224;28;20199;-84
2022/02/02 07:55:03;;;;;;;7.80;2.85;;;;;;;;;;5115643;28;20224;-85
2022/02/02 07:57:33;;;;;;;11.32;4.43;;;;;;;;;;5115729;28;20259;-85
2022/02/02 08:00:06;;;;;;;9.90;3.63;;;;;;;;;;5113194;28;20290;-85
2022/02/02 08:02:46;;;;;;;11.65;3.15;;;;;;;;;;5113165;28;20212;-84
2022/02/02 08:05:15;;;;;;;7.70;3.58;;;;;;;;;;5115681;28;20227;-84
2022/02/02 08:07:49;;;;;;;20.05;4.90;;;;;;;;;;5115110;28;20208;-85
2022/02/02 08:10:19;;;;;;;11.20;3.40;;;;;;;;;;5114502;28;20235;-85
2022/02/02 08:12:51;;;;;;;6.85;3.03;;;;;;;;;;5113389;28;20732;-86
2022/02/02 08:15:21;;;;;;;12.68;5.35;;;;;;;;;;5112712;28;20219;-84
2022/02/02 08:17:51;;;;;;;6.03;2.70;;;;;;;;;;5113412;28;20207;-85
2022/02/02 08:20:19;;;;;;;8.10;3.63;;;;;;;;;;5110902;28;20200;-86
2022/02/02 08:22:46;;;;;;;8.93;2.58;;;;;;;;;;5109766;28;20204;-86
2022/02/02 08:25:24;;;;;;;15.95;4.63;;;;;;;;;;5110075;28;20230;-85
2022/02/02 08:27:54;;;;;;;8.38;3.22;;;;;;;;;;5110490;28;20243;-85
2022/02/02 08:30:23;;;;;;;9.82;2.65;;;;;;;;;;5109874;28;20195;-84
2022/02/02 08:32:57;;;;;;;6.70;3.13;;;;;;;;;;5109785;28;20200;-86
2022/02/02 08:35:24;;;;;;;8.73;3.42;;;;;;;;;;5108008;28;20740;-86
2022/02/02 08:37:59;;;;;;;7.85;4.00;;;;;;;;;;5095421;28;20216;-86
2022/02/02 08:40:30;;;;;;;16.58;4.47;;;;;;;;;;5095466;28;20191;-87
2022/02/02 08:43:06;;;;;;;11.43;3.50;;;;;;;;;;5095167;28;20584;-87
2022/02/02 08:45:36;;;;;;;13.43;4.40;;;;;;;;;;5095329;28;20227;-87
2022/02/02 08:48:07;;;;;;;12.35;2.95;;;;;;;;;;5095123;28;20227;-88
2022/02/02 08:50:43;;;;;;;15.23;4.55;;;;;;;;;;5095218;28;20207;-88
2022/02/02 08:53:27;;;;;;;11.15;4.57;;;;;;;;;;5095424;28;20664;-88
2022/02/02 08:56:15;;;;;;;8.00;2.47;;;;;;;;;;5095215;28;20224;-86
2022/02/02 08:58:46;;;;;;;10.35;3.78;;;;;;;;;;5097411;28;20283;-85
2022/02/02 09:01:20;;;;;;;9.27;3.53;;;;;;;;;;5099165;28;20206;-84
2022/02/02 09:06:32;;;;;;;7.53;3.95;;;;;;;;;;5090047;28;20238;-85
2022/02/02 09:09:09;;;;;;;11.32;4.30;;;;;;;;;;5096879;28;20208;-85
2022/02/02 09:20:14;;;;;;;7.95;3.50;;;;;;;;;;5094649;28;20281;-86
2022/02/02 09:23:25;;;;;;;13.73;4.95;;;;;;;;;;5094620;28;20208;-86
2022/02/02 09:25:58;;;;;;;8.45;2.88;;;;;;;;;;5095303;28;20670;-86
2022/02/02 09:31:32;;;;;;;7.70;3.65;;;;;;;;;;5061158;28;20287;-85
2022/02/02 09:34:03;;;;;;;8.57;2.90;;;;;;;;;;5094582;28;20200;-85
2022/02/02 09:36:34;;;;;;;13.07;4.45;;;;;;;;;;5095025;28;20224;-85
2022/02/02 09:39:07;;;;;;;12.18;3.67;;;;;;;;;;5094978;28;20249;-86
2022/02/02 09:41:40;;;;;;;10.85;4.30;;;;;;;;;;5094187;28;20285;-87
2022/02/02 09:44:11;;;;;;;5.95;2.30;;;;;;;;;;5094432;28;20296;-87
2022/02/02 09:46:53;;;;;;;4.35;2.10;;;;;;;;;;5094168;28;20231;-86
2022/02/02 09:49:26;;;;;;;7.80;3.22;;;;;;;;;;5092916;28;20291;-87
2022/02/02 09:51:59;;;;;;;8.38;2.72;;;;;;;;;;5093237;28;20210;-87
2022/02/02 09:54:33;;;;;;;7.20;2.30;;;;;;;;;;5093836;28;20758;-87
2022/02/02 10:02:35;;;;;;;6.82;2.70;;;;;;;;;;5088574;28;20199;-87
2022/02/02 10:05:11;;;;;;;6.95;2.50;;;;;;;;;;5094164;28;20248;-86
2022/02/02 10:08:22;;;;;;;6.60;3.20;;;;;;;;;;5093693;28;20231;-85
2022/02/02 10:10:54;;;;;;;4.05;1.88;;;;;;;;;;5096538;28;20204;-87
2022/02/02 10:13:25;;;;;;;5.72;2.72;;;;;;;;;;5093487;28;20660;-85
2022/02/02 10:15:55;;;;;;;6.53;2.65;;;;;;;;;;5093584;28;20606;-86
2022/02/02 10:18:32;;;;;;;8.45;2.80;;;;;;;;;;5093484;28;20240;-84
2022/02/02 10:21:00;;;;;;;6.72;1.85;;;;;;;;;;5095078;28;20192;-85
2022/02/02 10:23:30;;;;;;;3.35;1.95;;;;;;;;;;5094305;28;20200;-85
2022/02/02 10:26:16;;;;;;;6.60;3.05;;;;;;;;;;5094323;28;20253;-85
2022/02/02 10:28:43;;;;;;;5.05;1.88;;;;;;;;;;5094103;28;20203;-85
2022/02/02 10:31:11;;;;;;;5.38;2.00;;;;;;;;;;5093518;28;20204;-84
2022/02/02 10:33:40;;;;;;;3.95;1.58;;;;;;;;;;5098202;28;20216;-87
2022/02/02 10:36:14;;;;;;;4.10;1.60;;;;;;;;;;5094581;28;20224;-87
2022/02/02 10:38:49;;;;;;;5.80;2.25;;;;;;;;;;5094204;28;20558;-86
2022/02/02 10:41:28;;;;;;;3.63;1.58;;;;;;;;;;5095205;28;20294;-85
2022/02/02 10:43:58;;;;;;;5.05;2.38;;;;;;;;;;5093613;28;20582;-86
2022/02/02 10:46:33;;;;;;;3.90;1.60;;;;;;;;;;5093613;28;20778;-86
2022/02/02 10:49:13;;;;;;;4.72;1.77;;;;;;;;;;5094697;28;20572;-86
2022/02/02 10:51:45;;;;;;;5.60;3.03;;;;;;;;;;5087045;28;20706;-86
2022/02/02 10:54:29;;;;;;;4.30;1.77;;;;;;;;;;5092986;28;20215;-87
2022/02/02 10:57:09;;;;;;;17.33;4.60;;;;;;;;;;5093945;28;20208;-85
2022/02/02 11:07:51;;;;;;;5.68;2.40;;;;;;;;;;5093572;28;20235;-85
2022/02/02 11:10:19;;;;;;;4.22;1.63;;;;;;;;;;5094232;28;20212;-85
2022/02/02 11:12:49;;;;;;;4.50;1.85;;;;;;;;;;5093258;28;20215;-84
2022/02/02 11:15:36;;;;;;;5.07;1.58;;;;;;;;;;5093668;28;20232;-84
2022/02/02 11:18:15;;;;;;;5.95;3.00;;;;;;;;;;5089399;28;20207;-84
2022/02/02 11:20:45;;;;;;;11.93;2.88;;;;;;;;;;5093604;28;20238;-85
2022/02/02 11:23:13;;;;;;;6.47;2.53;;;;;;;;;;5093905;28;20219;-85
2022/02/02 11:25:50;;;;;;;2.63;1.80;;;;;;;;;;5093399;28;20244;-86
2022/02/02 11:28:32;;;;;;;5.53;2.25;;;;;;;;;;5092106;28;20223;-85
2022/02/02 11:31:16;;;;;;;5.82;2.13;;;;;;;;;;5086352;28;20261;-85
2022/02/02 11:33:51;;;;;;;10.43;4.07;;;;;;;;;;5093349;28;20623;-87
2022/02/02 11:36:32;;;;;;;12.55;3.95;;;;;;;;;;5092351;28;20235;-85
2022/02/02 11:39:01;;;;;;;5.75;2.58;;;;;;;;;;5093033;28;20211;-85
2022/02/02 11:41:53;;;;;;;7.78;2.17;;;;;;;;;;5092857;28;20200;-86
2022/02/02 11:44:40;;;;;;;6.40;2.30;;;;;;;;;;5092626;28;20219;-87
2022/02/02 11:47:19;;;;;;;6.72;2.35;;;;;;;;;;5092940;28;20594;-89
2022/02/02 11:49:51;;;;;;;9.05;3.22;;;;;;;;;;5092836;28;20283;-87
2022/02/02 11:52:44;;;;;;;3.63;2.17;;;;;;;;;;5094055;28;20204;-88
2022/02/02 11:55:43;;;;;;;5.60;2.33;;;;;;;;;;5093277;28;20216;-87
2022/02/02 11:58:15;;;;;;;5.45;2.67;;;;;;;;;;5092368;28;20265;-86
2022/02/02 12:00:57;;;;;;;7.45;2.20;;;;;;;;;;5092454;28;20216;-87
2022/02/02 12:03:47;;;;;;;10.07;2.35;;;;;;;;;;5092296;28;20231;-87
2022/02/02 12:06:29;;;;;;;5.68;3.25;;;;;;;;;;5092118;28;20575;-86
2022/02/02 12:09:08;;;;;;;7.70;3.10;;;;;;;;;;5087898;28;20227;-86
2022/02/02 12:18:59;;;;;;;4.55;2.30;;;;;;;;;;5093270;28;20212;-86
2022/02/02 12:49:02;;;;;;;8.98;2.72;;;;;;;;;;5109839;28;20254;-84
2022/02/02 12:54:55;;;;;;;10.25;3.45;;;;;;;;;;5097963;28;20285;-85
2022/02/02 12:57:20;;;;;;;6.65;3.00;;;;;;;;;;5096168;28;20943;-85
2022/02/02 13:00:06;;;;;;;4.05;2.08;;;;;;;;;;5095555;28;20558;-85
2022/02/02 13:02:37;;;;;;;6.45;2.58;;;;;;;;;;5098036;28;20242;-84
2022/02/02 13:05:07;;;;;;;4.75;2.67;;;;;;;;;;5096288;28;20221;-85
2022/02/02 13:07:36;;;;;;;5.93;2.55;;;;;;;;;;5097831;28;20228;-85
2022/02/02 13:10:08;;;;;;;8.13;2.80;;;;;;;;;;5095792;28;20226;-86
2022/02/02 13:12:41;;;;;;;8.85;3.33;;;;;;;;;;5093660;28;20211;-83
2022/02/02 13:15:23;;;;;;;7.22;3.78;;;;;;;;;;5098283;28;20228;-82
2022/02/02 13:18:04;;;;;;;6.95;2.95;;;;;;;;;;5097545;28;20226;-84
2022/02/02 13:20:45;;;;;;;8.15;2.95;;;;;;;;;;5098133;28;20212;-84
2022/02/02 13:23:20;;;;;;;6.38;2.67;;;;;;;;;;5096710;28;20205;-84
2022/02/02 13:25:53;;;;;;;8.05;2.75;;;;;;;;;;5096104;28;20227;-84
2022/02/02 13:28:46;;;;;;;8.80;2.00;;;;;;;;;;5095996;28;20240;-85
2022/02/02 13:31:47;;;;;;;5.43;2.50;;;;;;;;;;5096266;28;20648;-85
2022/02/02 13:34:31;;;;;;;6.85;3.38;;;;;;;;;;5098454;28;20659;-86
2022/02/02 13:45:52;;;;;;;9.65;2.58;;;;;;;;;;5095127;28;20285;-85
2022/02/02 13:48:49;;;;;;;4.60;1.90;;;;;;;;;;5096821;28;20220;-85
2022/02/02 13:54:19;;;;;;;5.15;2.17;;;;;;;;;;5097765;28;20207;-85
2022/02/02 13:59:57;;;;;;;4.07;2.28;;;;;;;;;;5099188;28;20226;-85
2022/02/02 14:11:04;;;;;;;6.47;2.22;;;;;;;;;;5071786;28;20655;-86
2022/02/02 14:32:47;;;;;;;12.15;3.03;;;;;;;;;;5095593;28;20215;-88
2022/02/02 14:35:16;;;;;;;9.25;3.35;;;;;;;;;;5094695;28;20228;-87
2022/02/02 14:37:45;;;;;;;5.50;2.78;;;;;;;;;;5095406;28;20215;-86
2022/02/02 14:40:20;;;;;;;4.57;2.13;;;;;;;;;;5096674;28;20208;-84
2022/02/02 14:42:51;;;;;;;5.03;1.92;;;;;;;;;;5095058;28;20208;-84
2022/02/02 14:45:22;;;;;;;4.32;2.35;;;;;;;;;;5095871;28;20596;-86
2022/02/02 14:47:55;;;;;;;6.07;2.30;;;;;;;;;;5095479;28;20231;-86
2022/02/02 14:50:28;;;;;;;4.20;2.00;;;;;;;;;;5094679;28;20612;-85
2022/02/02 14:53:10;;;;;;;9.23;2.83;;;;;;;;;;5095076;28;20686;-83
2022/02/02 15:09:53;;;;;;;8.60;3.03;;;;;;;;;;5093419;28;20235;-85
2022/02/02 15:27:14;;;;;;;2.95;1.58;;;;;;;;;;5093553;28;20243;-84
2022/02/02 15:29:30;;;;;;;6.85;2.88;;;;;;;;;;5093207;28;20228;-85
2022/02/02 15:31:58;;;;;;;5.35;2.17;;;;;;;;;;5094930;28;20327;-84
2022/02/02 15:34:32;;;;;;;7.05;2.92;;;;;;;;;;5093167;28;20676;-85
2022/02/02 15:39:45;;;;;;;3.78;2.13;;;;;;;;;;5080645;28;20240;-84
2022/02/02 15:42:25;;;;;;;3.53;1.60;;;;;;;;;;5092340;28;20208;-85
2022/02/02 15:45:16;;;;;;;7.15;2.00;;;;;;;;;;5093030;28;20226;-84
2022/02/02 15:56:50;;;;;;;10.85;2.72;;;;;;;;;;5098388;28;20242;-85
2022/02/02 15:59:06;;;;;;;5.90;2.90;;;;;;;;;;5097711;28;20195;-84
2022/02/02 16:04:23;;;;;;;3.67;2.05;;;;;;;;;;5096972;28;20563;-85
2022/02/02 16:06:52;;;;;;;4.35;1.42;;;;;;;;;;5098035;28;20290;-84
2022/02/02 16:09:24;;;;;;;4.57;1.95;;;;;;;;;;5096514;28;20220;-84
2022/02/02 16:12:06;;;;;;;6.10;3.47;;;;;;;;;;5097285;28;20245;-83
2022/02/02 16:14:40;;;;;;;7.60;3.00;;;;;;;;;;5098852;28;20196;-85
2022/02/02 16:31:28;;;;;;;3.08;1.45;;;;;;;;;;5098479;28;20243;-84
2022/02/02 16:36:37;;;;;;;4.10;1.80;;;;;;;;;;5096340;28;20218;-84
2022/02/02 16:39:10;;;;;;;2.25;1.40;;;;;;;;;;5097177;28;20197;-84
2022/02/02 16:44:22;;;;;;;3.17;1.77;;;;;;;;;;5095923;28;20241;-82
2022/02/02 16:46:52;;;;;;;5.40;1.77;;;;;;;;;;5096301;28;20204;-84
2022/02/02 16:49:19;;;;;;;3.88;2.22;;;;;;;;;;5095889;28;20318;-84
2022/02/02 16:51:47;;;;;;;3.58;1.80;;;;;;;;;;5095921;28;20212;-85
2022/02/02 16:54:21;;;;;;;3.17;1.55;;;;;;;;;;5095723;28;20200;-84
2022/02/02 16:57:05;;;;;;;3.40;1.58;;;;;;;;;;5096174;28;20200;-84
2022/02/02 17:32:40;;;;;;;3.67;1.60;;;;;;;;;;5095681;28;20232;-84
2022/02/02 17:38:05;;;;;;;3.90;1.73;;;;;;;;;;5077628;28;20233;-84
2022/02/02 17:40:43;;;;;;;8.50;1.73;;;;;;;;;;5095999;28;20738;-85
2022/02/02 17:43:37;;;;;;;2.45;1.60;;;;;;;;;;5095493;28;20223;-83
2022/02/02 17:56:12;;;;;;;4.78;2.10;;;;;;;;;;5096239;28;20273;-83
2022/02/02 18:19:23;;;;;;;3.85;2.47;;;;;;;;;;5099140;28;20262;-83
2022/02/02 18:21:51;;;;;;;2.15;1.95;;;;;;;;;;5103231;28;20204;-83
2022/02/02 18:24:24;;;;;;;1.95;1.60;;;;;;;;;;5101646;28;20200;-83
2022/02/02 18:26:53;;;;;;;2.60;1.80;;;;;;;;;;5101056;28;20299;-82
2022/02/02 18:29:27;;;;;;;3.40;2.35;;;;;;;;;;5100808;28;20295;-85
2022/02/02 18:34:42;;;;;;;3.15;1.58;;;;;;;;;;5097639;28;20239;-85
2022/02/02 18:48:32;;;;;;;3.10;1.50;;;;;;;;;;5097295;28;20215;-84
2022/02/02 18:51:23;;;;;;;3.47;1.85;;;;;;;;;;5097612;28;20224;-83
2022/02/02 18:54:06;;;;;;;4.13;1.92;;;;;;;;;;5097496;28;20208;-85
2022/02/02 18:56:58;;;;;;;4.38;1.85;;;;;;;;;;5098266;28;20251;-85
2022/02/02 18:59:43;;;;;;;1.88;1.33;;;;;;;;;;5097500;28;20207;-85
2022/02/02 19:02:23;;;;;;;2.22;2.03;;;;;;;;;;5095706;28;20200;-83
2022/02/02 19:05:12;;;;;;;3.25;1.80;;;;;;;;;;5094259;28;20228;-84
2022/02/02 19:08:09;;;;;;;3.05;1.55;;;;;;;;;;5098668;28;20276;-84
2022/02/02 19:52:38;;;;;;;0.82;0.82;;;;;;;;;;5096246;28;20238;-83
2022/02/02 19:55:27;;;;;;;0.82;0.82;;;;;;;;;;5096247;28;20703;-83
2022/02/02 20:06:22;;;;;;;6.50;1.65;;;;;;;;;;5096279;28;20269;-85
2022/02/02 20:09:20;;;;;;;2.45;1.33;;;;;;;;;;5095645;28;20246;-85
2022/02/02 20:11:45;;;;;;;4.35;1.35;;;;;;;;;;5095720;28;20228;-84
2022/02/02 20:14:14;;;;;;;4.50;2.08;;;;;;;;;;5096721;28;20204;-84
2022/02/02 20:16:42;;;;;;;0.93;0.90;;;;;;;;;;5095805;28;20262;-83
2022/02/02 20:19:12;;;;;;;4.38;1.38;;;;;;;;;;5095054;28;20200;-84
2022/02/02 20:21:47;;;;;;;2.30;1.35;;;;;;;;;;5095097;28;20196;-86
2022/02/02 20:24:14;;;;;;;2.88;1.52;;;;;;;;;;5095731;28;20685;-84
2022/02/02 20:26:47;;;;;;;2.17;1.48;;;;;;;;;;5094776;28;20216;-84
2022/02/02 20:29:15;;;;;;;1.50;1.20;;;;;;;;;;5095118;28;20284;-84
2022/02/02 20:31:44;;;;;;;1.13;1.10;;;;;;;;;;5094314;28;20261;-83
2022/02/02 20:34:14;;;;;;;2.55;1.50;;;;;;;;;;5097766;28;20199;-84
2022/02/02 20:36:41;;;;;;;0.90;0.90;;;;;;;;;;5098200;28;20731;-84
2022/02/02 20:39:22;;;;;;;2.17;1.20;;;;;;;;;;5098548;28;20219;-84
2022/02/02 20:41:49;;;;;;;1.63;1.20;;;;;;;;;;5096762;28;20784;-83
2022/02/02 20:44:23;;;;;;;3.20;2.03;;;;;;;;;;5097315;28;20219;-83
2022/02/02 20:47:17;;;;;;;2.92;1.67;;;;;;;;;;5098162;28;20200;-84
2022/02/02 21:04:04;;;;;;;2.70;1.52;;;;;;;;;;5096223;28;20249;-83
2022/02/02 21:06:44;;;;;;;4.07;1.50;;;;;;;;;;5096260;28;20315;-83
2022/02/02 21:09:29;;;;;;;2.08;1.63;;;;;;;;;;5096723;28;20577;-83
2022/02/02 21:13:40;;;;;;;2.80;1.63;;;;;;;;;;5095930;28;20260;-84
2022/02/02 21:14:59;;;;;;;6.20;2.03;;;;;;;;;;5096005;28;20226;-84
2022/02/02 21:17:32;;;;;;;2.00;1.60;;;;;;;;;;5096814;28;20231;-84
2022/02/02 21:20:09;;;;;;;3.85;1.80;;;;;;;;;;5096953;28;20243;-83
2022/02/02 21:22:48;;;;;;;4.15;2.22;;;;;;;;;;5096946;28;20206;-83
2022/02/02 21:25:32;;;;;;;3.35;1.85;;;;;;;;;;5095868;28;20239;-83
2022/02/02 21:28:01;;;;;;;1.52;1.15;;;;;;;;;;5096251;28;20204;-83
2022/02/02 21:30:30;;;;;;;2.25;1.70;;;;;;;;;;5096507;28;20227;-84
2022/02/02 21:32:58;;;;;;;1.52;1.40;;;;;;;;;;5096157;28;20228;-84
2022/02/02 21:35:26;;;;;;;2.35;2.13;;;;;;;;;;5096689;28;20220;-83
2022/02/02 21:38:02;;;;;;;1.65;1.33;;;;;;;;;;5096304;28;20701;-83
2022/02/02 21:40:31;;;;;;;2.72;1.20;;;;;;;;;;5090048;22;20751;-82
2022/02/02 21:42:59;;;;;;;1.98;1.05;;;;;;;;;;5052913;28;20662;-81
2022/02/02 21:45:31;;;;;;;1.58;1.25;;;;;;;;;;5055631;28;20202;-82
2022/02/02 21:48:00;;;;;;;2.33;1.58;;;;;;;;;;5055686;28;20714;-81
2022/02/02 21:50:41;;;;;;;2.28;1.35;;;;;;;;;;5055399;28;20233;-82
2022/02/02 21:53:10;;;;;;;1.70;1.52;;;;;;;;;;5055705;28;20225;-82
2022/02/02 21:55:37;;;;;;;3.03;1.80;;;;;;;;;;5055667;28;20201;-81
2022/02/02 21:58:05;;;;;;;3.38;2.03;;;;;;;;;;5055543;28;20198;-81
2022/02/02 22:00:33;;;;;;;5.05;2.90;;;;;;;;;;5055602;28;20271;-80
2022/02/02 22:03:01;;;;;;;2.35;1.92;;;;;;;;;;5055197;28;20205;-80
2022/02/02 22:05:28;;;;;;;2.17;1.67;;;;;;;;;;5054805;28;20210;-81
2022/02/02 22:07:55;;;;;;;1.70;1.60;;;;;;;;;;5054766;28;20202;-81
2022/02/02 22:10:24;;;;;;;1.95;1.40;;;;;;;;;;5054782;28;20229;-81
2022/02/02 22:12:51;;;;;;;1.83;1.38;;;;;;;;;;5055033;28;20269;-82
2022/02/02 22:15:24;;;;;;;2.45;1.50;;;;;;;;;;5054928;28;20217;-81
2022/02/02 22:17:51;;;;;;;1.80;1.38;;;;;;;;;;5055670;28;20202;-81
2022/02/02 22:20:18;;;;;;;3.35;1.67;;;;;;;;;;5054721;28;20236;-82
2022/02/02 22:22:47;;;;;;;2.00;1.90;;;;;;;;;;5054725;28;20197;-80
2022/02/02 22:25:15;;;;;;;2.60;2.13;;;;;;;;;;5061194;28;20224;-80
2022/02/02 22:27:43;;;;;;;3.95;2.55;;;;;;;;;;5063815;28;20205;-80
2022/02/02 22:30:11;;;;;;;4.93;3.08;;;;;;;;;;5057965;28;20230;-82
2022/02/02 22:32:39;;;;;;;2.53;2.33;;;;;;;;;;5054657;28;20225;-82
2022/02/02 22:35:07;;;;;;;6.03;4.03;;;;;;;;;;5055077;28;20496;-82
2022/02/02 22:37:36;;;;;;;4.78;2.92;;;;;;;;;;5054405;28;20206;-81
2022/02/02 22:40:08;;;;;;;4.15;2.40;;;;;;;;;;5054724;28;20229;-80
2022/02/02 22:42:36;;;;;;;2.10;1.90;;;;;;;;;;5054216;28;20307;-81
2022/02/02 22:45:09;;;;;;;2.58;2.13;;;;;;;;;;5054405;28;20297;-80
2022/02/02 22:47:37;;;;;;;5.50;2.70;;;;;;;;;;5054418;28;20296;-80
2022/02/02 22:50:07;;;;;;;4.20;2.08;;;;;;;;;;5054172;28;20232;-80
2022/02/02 22:52:34;;;;;;;1.55;1.10;;;;;;;;;;5054005;28;20226;-81
2022/02/02 22:55:02;;;;;;;4.10;2.08;;;;;;;;;;5053882;28;20557;-80
2022/02/02 22:57:29;;;;;;;2.85;2.05;;;;;;;;;;5054177;28;20210;-79
2022/02/02 22:59:57;;;;;;;2.92;2.05;;;;;;;;;;5053827;28;20287;-80